createdAt,value
2018-05-27T00:01:28.564Z,14.17
2018-05-27T00:06:19.422Z,13.90
2018-05-27T00:11:10.309Z,15.43
2018-05-27T00:16:01.211Z,20.07
2018-05-27T00:20:52.087Z,16.40
2018-05-27T00:25:44.458Z,14.57
2018-05-27T00:30:36.095Z,16.87
2018-05-27T00:35:27.794Z,15.60
2018-05-27T00:40:19.448Z,16.17
2018-05-27T00:45:10.349Z,14.17
2018-05-27T00:50:01.294Z,17.15
2018-05-27T00:54:54.046Z,14.35
2018-05-27T00:59:44.974Z,15.25
2018-05-27T01:04:37.320Z,14.33
2018-05-27T01:09:29.702Z,14.20
2018-05-27T01:14:21.352Z,15.45
2018-05-27T01:19:12.989Z,15.27
2018-05-27T01:24:04.740Z,15.90
2018-05-27T01:28:55.634Z,20.47
2018-05-27T01:33:47.348Z,16.63
2018-05-27T01:38:38.209Z,15.73
2018-05-27T01:43:29.877Z,15.05
2018-05-27T01:48:20.795Z,16.60
2018-05-27T01:53:11.684Z,16.70
2018-05-27T01:58:03.325Z,17.67
2018-05-27T02:02:55.759Z,16.23
2018-05-27T02:07:46.669Z,15.20
2018-05-27T02:12:37.596Z,15.90
2018-05-27T02:17:28.470Z,16.37
2018-05-27T02:22:19.380Z,17.83
2018-05-27T02:27:11.074Z,17.20
2018-05-27T02:32:01.968Z,16.57
2018-05-27T02:36:53.703Z,19.30
2018-05-27T02:41:44.602Z,19.03
2018-05-27T02:46:35.525Z,16.93
2018-05-27T02:51:26.423Z,17.47
2018-05-27T02:56:18.104Z,18.47
2018-05-27T03:01:08.998Z,19.60
2018-05-27T03:05:59.972Z,17.63
2018-05-27T03:10:50.880Z,17.50
2018-05-27T03:15:41.761Z,17.60
2018-05-27T03:20:32.716Z,16.63
2018-05-27T03:25:23.604Z,18.33
2018-05-27T03:30:15.262Z,17.93
2018-05-27T03:35:06.907Z,19.03
2018-05-27T03:39:57.828Z,18.73
2018-05-27T03:44:48.746Z,19.50
2018-05-27T03:49:39.625Z,17.98
2018-05-27T03:54:30.555Z,18.70
2018-05-27T03:59:21.546Z,18.33
2018-05-27T04:04:41.399Z,18.37
2018-05-27T04:09:33.041Z,20.83
2018-05-27T04:14:23.920Z,18.93
2018-05-27T04:19:15.553Z,18.53
2018-05-27T04:24:07.219Z,20.07
2018-05-27T04:28:58.163Z,19.43
2018-05-27T04:33:50.592Z,19.77
2018-05-27T04:38:42.258Z,22.13
2018-05-27T04:43:33.192Z,23.03
2018-05-27T04:48:24.098Z,21.27
2018-05-27T04:53:14.987Z,19.97
2018-05-27T04:58:05.908Z,22.20
2018-05-27T05:02:56.835Z,21.60
2018-05-27T05:07:47.762Z,21.30
2018-05-27T05:12:38.676Z,20.20
2018-05-27T05:17:30.316Z,20.67
2018-05-27T05:22:21.920Z,21.60
2018-05-27T05:27:13.600Z,20.60
2018-05-27T05:32:04.536Z,20.40
2018-05-27T05:36:55.525Z,20.23
2018-05-27T05:41:46.444Z,21.50
2018-05-27T05:46:37.316Z,24.13
2018-05-27T05:51:28.201Z,20.07
2018-05-27T05:56:19.068Z,21.00
2018-05-27T06:01:10.743Z,20.40
2018-05-27T06:06:02.404Z,21.33
2018-05-27T06:10:54.111Z,21.93
2018-05-27T06:15:45.792Z,21.03
2018-05-27T06:20:36.689Z,21.10
2018-05-27T06:25:28.307Z,21.80
2018-05-27T06:30:19.988Z,20.67
2018-05-27T06:35:10.909Z,19.77
2018-05-27T06:40:01.819Z,19.77
2018-05-27T06:44:52.758Z,19.70
2018-05-27T06:49:43.617Z,20.20
2018-05-27T06:54:35.260Z,20.80
2018-05-27T06:59:27.657Z,21.60
2018-05-27T07:04:18.536Z,18.50
2018-05-27T07:09:10.198Z,19.27
2018-05-27T07:14:01.113Z,18.57
2018-05-27T07:18:51.999Z,17.93
2018-05-27T07:23:43.652Z,18.53
2018-05-27T07:28:34.568Z,15.37
2018-05-27T07:33:25.480Z,14.87
2018-05-27T07:38:17.103Z,16.05
2018-05-27T07:43:08.754Z,16.10
2018-05-27T07:48:00.421Z,14.97
2018-05-27T07:52:51.316Z,14.03
2018-05-27T07:57:42.228Z,15.03
2018-05-27T08:02:33.870Z,16.33
2018-05-27T08:07:26.280Z,13.17
2018-05-27T08:12:17.140Z,13.20
2018-05-27T08:17:08.781Z,12.70
2018-05-27T08:22:00.399Z,14.33
2018-05-27T08:26:52.090Z,13.27
2018-05-27T08:31:42.969Z,15.50
2018-05-27T08:36:34.650Z,13.33
2018-05-27T08:41:25.534Z,13.67
2018-05-27T08:46:17.165Z,14.33
2018-05-27T08:51:08.832Z,15.37
2018-05-27T08:55:59.707Z,13.30
2018-05-27T09:00:50.592Z,16.23
2018-05-27T09:05:42.230Z,12.10
2018-05-27T09:10:33.123Z,15.23
2018-05-27T09:15:24.814Z,12.37
2018-05-27T09:20:15.689Z,13.67
2018-05-27T09:25:06.623Z,12.30
2018-05-27T09:29:57.485Z,14.83
2018-05-27T09:34:49.142Z,15.53
2018-05-27T09:39:40.805Z,13.03
2018-05-27T09:44:31.703Z,10.87
2018-05-27T09:49:24.099Z,11.47
2018-05-27T09:54:14.990Z,11.87
2018-05-27T09:59:05.917Z,10.57
2018-05-27T10:03:57.563Z,12.00
2018-05-27T10:08:49.217Z,9.37
2018-05-27T10:13:41.029Z,8.13
2018-05-27T10:18:31.904Z,9.43
2018-05-27T10:23:23.585Z,12.97
2018-05-27T10:28:15.195Z,7.83
2018-05-27T10:33:06.862Z,11.03
2018-05-27T10:37:57.719Z,8.97
2018-05-27T10:42:48.605Z,7.80
2018-05-27T10:47:39.535Z,8.80
2018-05-27T10:52:30.413Z,7.93
2018-05-27T10:57:22.055Z,9.70
2018-05-27T11:02:13.688Z,11.57
2018-05-27T11:07:05.357Z,7.87
2018-05-27T11:11:56.251Z,8.83
2018-05-27T11:16:47.213Z,7.67
2018-05-27T11:21:38.103Z,8.33
2018-05-27T11:26:29.904Z,10.57
2018-05-27T11:31:20.810Z,13.57
2018-05-27T11:36:11.776Z,10.43
2018-05-27T11:41:03.432Z,12.87
2018-05-27T11:45:55.044Z,9.60
2018-05-27T11:50:46.711Z,8.73
2018-05-27T11:55:38.357Z,10.47
2018-05-27T12:00:29.223Z,8.30
2018-05-27T12:05:20.915Z,10.50
2018-05-27T12:10:11.825Z,8.67
2018-05-27T12:15:02.867Z,10.67
2018-05-27T12:19:53.753Z,9.60
2018-05-27T12:24:44.687Z,12.00
2018-05-27T12:29:35.616Z,9.07
2018-05-27T12:34:27.601Z,9.10
2018-05-27T12:39:18.531Z,9.30
2018-05-27T12:44:09.472Z,10.17
2018-05-27T12:49:01.130Z,8.10
2018-05-27T12:53:52.063Z,11.63
2018-05-27T12:58:42.995Z,7.07
2018-05-27T13:03:33.905Z,10.43
2018-05-27T13:08:25.559Z,7.97
2018-05-27T13:13:17.228Z,6.93
2018-05-27T13:18:09.622Z,9.93
2018-05-27T13:23:00.491Z,8.50
2018-05-27T13:27:51.379Z,8.17
2018-05-27T13:32:42.313Z,8.70
2018-05-27T13:37:33.196Z,10.37
2018-05-27T13:42:24.064Z,9.20
2018-05-27T13:47:14.954Z,8.00
2018-05-27T13:52:06.581Z,7.67
2018-05-27T13:56:57.434Z,6.70
2018-05-27T14:01:48.366Z,7.53
2018-05-27T14:06:40.763Z,7.50
2018-05-27T14:11:32.394Z,7.28
2018-05-27T14:16:24.078Z,9.23
2018-05-27T14:21:14.955Z,8.53
2018-05-27T14:26:07.433Z,8.30
2018-05-27T14:30:58.334Z,7.00
2018-05-27T14:35:50.006Z,10.13
2018-05-27T14:40:40.859Z,6.87
2018-05-27T14:45:33.272Z,7.83
2018-05-27T14:50:24.167Z,9.17
2018-05-27T14:55:18.622Z,8.87
2018-05-27T15:00:10.326Z,7.17
2018-05-27T15:05:01.937Z,9.77
2018-05-27T15:09:53.576Z,11.50
2018-05-27T15:14:45.215Z,7.50
2018-05-27T15:19:36.810Z,8.63
2018-05-27T15:24:29.250Z,8.03
2018-05-27T15:29:20.143Z,13.53
2018-05-27T15:34:11.060Z,9.47
2018-05-27T15:39:02.730Z,8.13
2018-05-27T15:43:54.356Z,9.03
2018-05-27T15:48:45.262Z,10.63
2018-05-27T15:53:36.861Z,7.87
2018-05-27T15:58:29.252Z,8.67
2018-05-27T16:03:20.888Z,9.07
2018-05-27T16:08:12.523Z,7.37
2018-05-27T16:13:04.211Z,7.43
2018-05-27T16:17:56.901Z,8.37
2018-05-27T16:22:49.308Z,7.27
2018-05-27T16:27:40.232Z,12.83
2018-05-27T16:32:31.899Z,7.93
2018-05-27T16:37:22.845Z,8.50
2018-05-27T16:42:14.499Z,9.03
2018-05-27T16:47:06.172Z,8.40
2018-05-27T16:51:57.048Z,7.90
2018-05-27T16:56:47.938Z,7.33
2018-05-27T17:01:38.859Z,8.57
2018-05-27T17:06:29.771Z,7.87
2018-05-27T17:11:20.820Z,7.30
2018-05-27T17:16:13.188Z,7.03
2018-05-27T17:21:04.865Z,7.10
2018-05-27T17:25:55.772Z,7.67
2018-05-27T17:30:47.430Z,8.37
2018-05-27T17:35:38.285Z,8.97
2018-05-27T17:40:29.169Z,7.73
2018-05-27T17:45:20.066Z,9.73
2018-05-27T17:50:11.695Z,7.50
2018-05-27T17:55:03.374Z,9.93
2018-05-27T17:59:55.004Z,8.50
2018-05-27T18:04:46.366Z,8.73
2018-05-27T18:09:37.263Z,8.30
2018-05-27T18:14:28.206Z,10.60
2018-05-27T18:19:19.430Z,11.57
2018-05-27T18:24:10.352Z,11.07
2018-05-27T18:29:01.225Z,12.10
2018-05-27T18:33:52.905Z,9.80
2018-05-27T18:38:43.857Z,10.77
2018-05-27T18:43:34.704Z,8.20
2018-05-27T18:48:25.654Z,8.57
2018-05-27T18:53:16.548Z,10.67
2018-05-27T18:58:08.218Z,9.07
2018-05-27T19:02:59.136Z,9.00
2018-05-27T19:07:50.052Z,7.97
2018-05-27T19:12:41.694Z,9.63
2018-05-27T19:17:32.588Z,8.60
2018-05-27T19:22:23.505Z,11.77
2018-05-27T19:27:15.162Z,8.57
2018-05-27T19:32:06.901Z,8.80
2018-05-27T19:36:57.767Z,9.10
2018-05-27T19:41:48.768Z,8.93
2018-05-27T19:46:39.705Z,9.00
2018-05-27T19:51:30.601Z,8.63
2018-05-27T19:56:21.510Z,9.17
2018-05-27T20:01:13.221Z,10.50
2018-05-27T20:06:04.865Z,17.00
2018-05-27T20:10:56.531Z,9.70
2018-05-27T20:15:47.449Z,9.27
2018-05-27T20:20:38.323Z,9.70
2018-05-27T20:25:30.022Z,10.43
2018-05-27T20:30:20.924Z,9.93
2018-05-27T20:35:11.816Z,8.37
2018-05-27T20:40:03.472Z,8.13
2018-05-27T20:44:54.374Z,10.13
2018-05-27T20:49:46.028Z,8.23
2018-05-27T20:54:37.707Z,8.27
2018-05-27T20:59:28.580Z,9.23
2018-05-27T21:04:19.531Z,8.73
2018-05-27T21:09:10.504Z,10.13
2018-05-27T21:14:02.110Z,10.13
2018-05-27T21:18:53.727Z,11.50
2018-05-27T21:23:44.646Z,8.85
2018-05-27T21:28:35.570Z,8.70
2018-05-27T21:33:27.197Z,8.97
2018-05-27T21:38:18.944Z,8.50
2018-05-27T21:43:09.873Z,9.33
2018-05-27T21:48:00.789Z,11.10
2018-05-27T21:52:51.714Z,13.77
2018-05-27T21:57:42.661Z,11.67
2018-05-27T22:02:33.648Z,9.87
2018-05-27T22:07:24.581Z,10.33
2018-05-27T22:12:16.216Z,10.00
2018-05-27T22:17:07.126Z,9.80
2018-05-27T22:21:58.039Z,10.73
2018-05-27T22:26:49.814Z,10.13
2018-05-27T22:31:40.709Z,9.73
2018-05-27T22:36:32.347Z,11.13
2018-05-27T22:41:24.097Z,12.03
2018-05-27T22:46:15.006Z,11.40
2018-05-27T22:51:05.904Z,12.97
2018-05-27T22:55:57.545Z,11.60
2018-05-27T23:00:48.590Z,10.97
2018-05-27T23:05:39.504Z,11.43
2018-05-27T23:10:31.143Z,12.13
2018-05-27T23:15:22.777Z,11.87
2018-05-27T23:20:13.713Z,12.10
2018-05-27T23:25:04.626Z,13.20
2018-05-27T23:29:55.490Z,12.13
2018-05-27T23:34:46.406Z,12.27
2018-05-27T23:39:37.369Z,12.93
2018-05-27T23:44:29.045Z,12.77
2018-05-27T23:49:19.951Z,12.07
2018-05-27T23:54:11.740Z,13.10
2018-05-27T23:59:02.636Z,18.77
